createdAt,value
2023-01-10T00:01:43.078Z,83.25
2023-01-10T00:04:12.137Z,83.28
2023-01-10T00:06:45.738Z,82.78
2023-01-10T00:09:22.737Z,84.08
2023-01-10T00:12:14.345Z,83.44
2023-01-10T00:14:42.751Z,83.24
2023-01-10T00:17:11.776Z,82.92
2023-01-10T00:19:44.148Z,82.02
2023-01-10T00:22:24.492Z,82.65
2023-01-10T00:25:03.135Z,83.54
2023-01-10T00:27:35.705Z,82.27
2023-01-10T00:30:16.550Z,81.90
2023-01-10T00:32:46.078Z,82.14
2023-01-10T00:35:15.137Z,81.07
2023-01-10T00:37:48.687Z,80.89
2023-01-10T00:40:20.455Z,81.74
2023-01-10T00:43:09.596Z,82.48
2023-01-10T00:45:37.851Z,81.87
2023-01-10T00:48:06.374Z,81.47
2023-01-10T00:50:34.821Z,81.69
2023-01-10T00:53:04.221Z,80.67
2023-01-10T00:55:33.334Z,81.14
2023-01-10T00:58:17.469Z,80.66
2023-01-10T01:00:53.115Z,81.67
2023-01-10T01:03:27.212Z,81.71
2023-01-10T01:06:04.356Z,81.61
2023-01-10T01:08:33.327Z,82.34
2023-01-10T01:11:03.035Z,82.66
2023-01-10T01:13:40.853Z,82.82
2023-01-10T01:16:12.415Z,82.66
2023-01-10T01:18:42.154Z,83.33
2023-01-10T01:21:11.764Z,83.71
2023-01-10T01:23:41.106Z,84.29
2023-01-10T01:26:19.240Z,85.44
2023-01-10T01:28:51.281Z,85.25
2023-01-10T01:31:34.502Z,85.03
2023-01-10T01:34:05.139Z,85.21
2023-01-10T01:36:35.540Z,85.17
2023-01-10T01:39:08.656Z,85.60
2023-01-10T01:41:57.268Z,84.91
2023-01-10T01:44:31.585Z,86.21
2023-01-10T01:47:09.105Z,86.38
2023-01-10T01:49:40.620Z,85.82
2023-01-10T01:52:14.273Z,84.07
2023-01-10T01:54:43.633Z,85.63
2023-01-10T01:57:16.204Z,85.58
2023-01-10T01:59:58.083Z,85.95
2023-01-10T02:02:33.060Z,84.89
2023-01-10T02:05:06.789Z,85.98
2023-01-10T02:07:46.647Z,85.10
2023-01-10T02:10:24.265Z,85.46
2023-01-10T02:13:02.725Z,84.94
2023-01-10T02:15:55.727Z,85.29
2023-01-10T02:18:30.298Z,86.19
2023-01-10T02:21:24.856Z,85.09
2023-01-10T02:24:27.908Z,86.41
2023-01-10T02:27:30.115Z,86.24
2023-01-10T02:30:50.746Z,86.17
2023-01-10T02:33:28.501Z,85.11
2023-01-10T02:36:15.283Z,85.13
2023-01-10T02:39:03.391Z,84.88
2023-01-10T02:41:37.599Z,83.95
2023-01-10T02:44:21.733Z,84.14
2023-01-10T02:46:53.739Z,84.76
2023-01-10T02:49:24.869Z,84.29
2023-01-10T02:51:53.026Z,84.50
2023-01-10T02:54:30.962Z,84.98
2023-01-10T02:57:34.531Z,83.52
2023-01-10T03:00:14.030Z,83.86
2023-01-10T03:03:15.269Z,83.41
2023-01-10T03:06:07.258Z,83.28
2023-01-10T03:08:41.532Z,82.83
2023-01-10T03:11:19.370Z,83.62
2023-01-10T03:13:59.213Z,83.88
2023-01-10T03:16:31.157Z,85.40
2023-01-10T03:19:08.317Z,86.22
2023-01-10T03:21:44.806Z,87.51
2023-01-10T03:24:16.845Z,88.22
2023-01-10T03:26:52.585Z,89.17
2023-01-10T03:29:30.194Z,88.91
2023-01-10T03:32:05.594Z,88.41
2023-01-10T03:34:37.118Z,89.86
2023-01-10T03:37:15.988Z,90.58
2023-01-10T03:39:52.698Z,90.81
2023-01-10T03:42:28.751Z,90.16
2023-01-10T03:45:01.393Z,90.00
2023-01-10T03:47:35.194Z,91.52
2023-01-10T03:50:07.648Z,90.89
2023-01-10T03:52:48.595Z,90.49
2023-01-10T03:55:21.621Z,91.35
2023-01-10T03:57:53.210Z,90.90
2023-01-10T04:00:24.467Z,91.90
2023-01-10T04:02:56.337Z,92.19
2023-01-10T04:05:39.187Z,91.58
2023-01-10T04:08:17.775Z,91.98
2023-01-10T04:10:50.549Z,92.78
2023-01-10T04:13:28.023Z,91.95
2023-01-10T04:16:00.926Z,91.41
2023-01-10T04:18:35.812Z,91.30
2023-01-10T04:21:06.851Z,91.40
2023-01-10T04:23:48.243Z,91.92
2023-01-10T04:26:17.056Z,92.41
2023-01-10T04:28:46.117Z,92.67
2023-01-10T04:31:15.147Z,92.73
2023-01-10T04:33:47.080Z,94.20
2023-01-10T04:36:16.085Z,93.19
2023-01-10T04:38:50.259Z,94.79
2023-01-10T04:41:21.728Z,93.46
2023-01-10T04:43:53.361Z,93.84
2023-01-10T04:46:32.575Z,93.65
2023-01-10T04:49:06.454Z,92.48
2023-01-10T04:51:36.132Z,94.26
2023-01-10T04:54:29.311Z,94.55
2023-01-10T04:56:58.201Z,95.46
2023-01-10T04:59:27.693Z,94.03
2023-01-10T05:01:58.294Z,94.83
2023-01-10T05:04:28.158Z,94.62
2023-01-10T05:06:56.230Z,95.06
2023-01-10T05:09:25.950Z,96.43
2023-01-10T05:11:54.266Z,96.24
2023-01-10T05:14:34.995Z,96.61
2023-01-10T05:17:04.142Z,95.67
2023-01-10T05:19:33.717Z,95.00
2023-01-10T05:22:03.408Z,94.13
2023-01-10T05:24:44.486Z,96.10
2023-01-10T05:27:13.195Z,96.59
2023-01-10T05:29:42.587Z,95.37
2023-01-10T05:32:11.683Z,96.28
2023-01-10T05:34:45.271Z,96.34
2023-01-10T05:37:14.139Z,94.56
2023-01-10T05:40:00.383Z,94.88
2023-01-10T05:42:30.308Z,95.48
2023-01-10T05:45:07.244Z,94.72
2023-01-10T05:47:45.468Z,94.33
2023-01-10T05:50:13.843Z,94.55
2023-01-10T05:52:50.303Z,94.17
2023-01-10T05:55:39.148Z,94.61
2023-01-10T05:58:11.131Z,93.29
2023-01-10T06:00:43.516Z,93.86
2023-01-10T06:03:15.028Z,93.89
2023-01-10T06:05:47.189Z,94.04
2023-01-10T06:08:26.052Z,94.41
2023-01-10T06:11:04.995Z,93.54
2023-01-10T06:13:38.726Z,94.10
2023-01-10T06:16:16.735Z,94.03
2023-01-10T06:18:47.888Z,94.63
2023-01-10T06:21:16.432Z,95.35
2023-01-10T06:23:46.257Z,94.64
2023-01-10T06:26:16.835Z,94.47
2023-01-10T06:28:45.207Z,94.47
2023-01-10T06:31:15.484Z,95.45
2023-01-10T06:33:47.507Z,95.17
2023-01-10T06:36:21.557Z,95.93
2023-01-10T06:38:55.160Z,96.72
2023-01-10T06:41:39.587Z,95.04
2023-01-10T06:44:17.116Z,95.75
2023-01-10T06:46:54.383Z,96.18
2023-01-10T06:49:23.489Z,96.48
2023-01-10T06:51:52.892Z,96.33
2023-01-10T06:54:24.432Z,96.03
2023-01-10T06:56:53.885Z,96.49
2023-01-10T06:59:35.370Z,97.08
2023-01-10T07:02:05.383Z,96.66
2023-01-10T07:04:34.749Z,96.11
2023-01-10T07:07:05.650Z,95.73
2023-01-10T07:09:36.631Z,96.26
2023-01-10T07:12:08.782Z,96.08
2023-01-10T07:14:39.597Z,95.83
2023-01-10T07:17:11.126Z,95.66
2023-01-10T07:19:39.279Z,95.14
2023-01-10T07:22:09.991Z,94.59
2023-01-10T07:24:38.262Z,95.61
2023-01-10T07:27:14.798Z,94.90
2023-01-10T07:29:53.764Z,93.52
2023-01-10T07:32:25.591Z,93.24
2023-01-10T07:34:56.910Z,93.97
2023-01-10T07:37:28.674Z,94.26
2023-01-10T07:40:03.490Z,93.07
2023-01-10T07:42:39.837Z,93.76
2023-01-10T07:45:09.788Z,92.32
2023-01-10T07:47:38.592Z,92.44
2023-01-10T07:50:10.221Z,92.59
2023-01-10T07:52:39.477Z,90.97
2023-01-10T07:55:09.898Z,90.91
2023-01-10T07:57:45.175Z,91.27
2023-01-10T08:00:25.457Z,91.53
2023-01-10T08:02:55.777Z,91.53
2023-01-10T08:05:24.211Z,91.34
2023-01-10T08:07:56.379Z,92.71
2023-01-10T08:10:26.452Z,92.06
2023-01-10T08:13:17.930Z,90.04
2023-01-10T08:15:53.111Z,91.18
2023-01-10T08:18:24.862Z,90.71
2023-01-10T08:20:58.103Z,90.32
2023-01-10T08:23:29.044Z,90.84
2023-01-10T08:25:59.802Z,90.24
2023-01-10T08:28:31.987Z,90.40
2023-01-10T08:31:08.645Z,90.03
2023-01-10T08:33:42.341Z,89.16
2023-01-10T08:36:28.282Z,89.17
2023-01-10T08:38:59.984Z,89.68
2023-01-10T08:41:31.443Z,89.08
2023-01-10T08:44:05.173Z,87.00
2023-01-10T08:46:34.566Z,88.81
2023-01-10T08:49:03.659Z,87.36
2023-01-10T08:51:35.805Z,87.00
2023-01-10T08:54:04.673Z,86.87
2023-01-10T08:56:36.347Z,86.45
2023-01-10T08:59:18.792Z,86.37
2023-01-10T09:01:48.297Z,86.23
2023-01-10T09:04:20.103Z,86.42
2023-01-10T09:06:50.378Z,86.04
2023-01-10T09:09:27.636Z,85.67
2023-01-10T09:11:59.460Z,85.54
2023-01-10T09:14:31.991Z,85.10
2023-01-10T09:17:09.027Z,84.92
2023-01-10T09:19:39.911Z,84.46
2023-01-10T09:22:10.553Z,84.53
2023-01-10T09:24:44.034Z,85.24
2023-01-10T09:27:18.223Z,85.04
2023-01-10T09:29:52.714Z,84.41
2023-01-10T09:32:22.112Z,84.12
2023-01-10T09:34:52.668Z,83.20
2023-01-10T09:37:33.897Z,84.57
2023-01-10T09:40:07.669Z,83.37
2023-01-10T09:42:50.818Z,83.05
2023-01-10T09:45:32.573Z,83.44
2023-01-10T09:48:04.664Z,83.51
2023-01-10T09:50:41.924Z,82.59
2023-01-10T09:53:14.148Z,81.98
2023-01-10T09:55:46.226Z,82.95
2023-01-10T09:58:17.182Z,82.39
2023-01-10T10:00:56.088Z,82.63
2023-01-10T10:03:31.542Z,82.22
2023-01-10T10:06:11.613Z,81.65
2023-01-10T10:08:44.605Z,81.11
2023-01-10T10:11:53.327Z,81.02
2023-01-10T10:14:42.452Z,81.08
2023-01-10T10:17:36.566Z,80.86
2023-01-10T10:20:25.671Z,80.97
2023-01-10T10:23:09.646Z,80.65
2023-01-10T10:25:50.406Z,80.58
2023-01-10T10:28:54.589Z,79.72
2023-01-10T10:31:32.787Z,80.53
2023-01-10T10:34:20.097Z,79.44
2023-01-10T10:36:52.211Z,80.07
2023-01-10T10:39:23.857Z,79.26
2023-01-10T10:42:02.200Z,79.53
2023-01-10T10:44:43.962Z,78.95
2023-01-10T10:47:23.909Z,79.63
2023-01-10T10:50:02.237Z,79.01
2023-01-10T10:52:37.961Z,79.25
2023-01-10T10:55:16.658Z,79.28
2023-01-10T10:57:59.388Z,78.79
2023-01-10T11:00:31.402Z,78.72
2023-01-10T11:03:08.452Z,78.35
2023-01-10T11:05:55.894Z,77.42
2023-01-10T11:08:26.774Z,77.59
2023-01-10T11:10:59.950Z,78.34
2023-01-10T11:13:38.600Z,77.51
2023-01-10T11:16:09.009Z,77.90
2023-01-10T11:18:41.623Z,76.45
2023-01-10T11:21:25.173Z,76.48
2023-01-10T11:23:55.031Z,75.95
2023-01-10T11:26:35.156Z,75.91
2023-01-10T11:29:16.525Z,75.32
2023-01-10T11:31:49.398Z,74.81
2023-01-10T11:34:26.145Z,75.24
2023-01-10T11:37:11.495Z,74.45
2023-01-10T11:39:46.716Z,74.48
2023-01-10T11:42:30.694Z,73.82
2023-01-10T11:45:33.901Z,73.58
2023-01-10T11:48:19.354Z,73.03
2023-01-10T11:51:00.138Z,72.45
2023-01-10T11:54:05.737Z,73.32
2023-01-10T11:56:48.915Z,72.85
2023-01-10T11:59:19.121Z,72.34
2023-01-10T12:01:55.017Z,72.71
2023-01-10T12:04:23.868Z,72.37
2023-01-10T12:06:58.483Z,71.30
2023-01-10T12:09:44.456Z,71.68
2023-01-10T12:12:26.003Z,69.61
2023-01-10T12:14:56.643Z,70.24
2023-01-10T12:17:33.354Z,70.78
2023-01-10T12:20:13.493Z,70.66
2023-01-10T12:22:53.986Z,70.94
2023-01-10T12:25:31.140Z,69.74
2023-01-10T12:28:02.178Z,69.45
2023-01-10T12:30:46.247Z,70.13
2023-01-10T12:33:21.231Z,68.91
2023-01-10T12:35:53.593Z,68.60
2023-01-10T12:38:50.249Z,68.50
2023-01-10T12:41:44.011Z,66.71
2023-01-10T12:44:27.285Z,66.58
2023-01-10T12:47:09.223Z,67.26
2023-01-10T12:49:45.603Z,66.37
2023-01-10T12:52:21.347Z,66.04
2023-01-10T12:54:56.746Z,65.88
2023-01-10T12:57:33.073Z,66.07
2023-01-10T13:00:05.979Z,66.29
2023-01-10T13:02:41.600Z,66.22
2023-01-10T13:05:18.436Z,65.74
2023-01-10T13:07:50.424Z,64.96
2023-01-10T13:10:21.823Z,65.10
2023-01-10T13:12:56.741Z,65.06
2023-01-10T13:15:30.027Z,64.92
2023-01-10T13:18:06.325Z,64.94
2023-01-10T13:20:44.855Z,64.31
2023-01-10T13:23:33.229Z,64.22
2023-01-10T13:26:16.193Z,64.58
2023-01-10T13:29:00.756Z,64.35
2023-01-10T13:31:39.864Z,64.32
2023-01-10T13:34:15.270Z,64.18
2023-01-10T13:36:52.672Z,64.33
2023-01-10T13:39:25.093Z,63.70
2023-01-10T13:42:51.892Z,64.36
2023-01-10T13:45:29.477Z,64.17
2023-01-10T13:48:22.962Z,64.82
2023-01-10T13:51:10.908Z,65.37
2023-01-10T13:54:01.304Z,65.49
2023-01-10T13:56:33.217Z,65.86
2023-01-10T13:59:23.106Z,66.13
2023-01-10T14:02:13.114Z,66.17
2023-01-10T14:04:52.945Z,66.12
2023-01-10T14:07:25.852Z,66.16
2023-01-10T14:10:04.636Z,66.38
2023-01-10T14:12:40.051Z,66.83
2023-01-10T14:15:24.575Z,66.72
2023-01-10T14:18:08.158Z,67.14
2023-01-10T14:20:37.483Z,66.83
2023-01-10T14:23:14.625Z,67.87
2023-01-10T14:25:48.655Z,67.66
2023-01-10T14:28:27.176Z,68.63
2023-01-10T14:31:03.908Z,68.52
2023-01-10T14:33:39.232Z,68.66
2023-01-10T14:36:11.611Z,68.92
2023-01-10T14:38:43.834Z,68.53
2023-01-10T14:41:21.786Z,68.42
2023-01-10T14:43:57.910Z,68.87
2023-01-10T14:46:35.292Z,70.62
2023-01-10T14:49:23.170Z,71.20
2023-01-10T14:51:59.730Z,71.93
2023-01-10T14:54:30.731Z,71.15
2023-01-10T14:57:02.800Z,71.70
2023-01-10T14:59:34.334Z,71.12
2023-01-10T15:02:12.002Z,71.87
2023-01-10T15:04:53.482Z,71.57
2023-01-10T15:07:23.863Z,71.94
2023-01-10T15:09:58.436Z,71.78
2023-01-10T15:12:29.321Z,72.18
2023-01-10T15:15:07.898Z,72.27
2023-01-10T15:17:38.639Z,72.78
2023-01-10T15:20:17.656Z,72.56
2023-01-10T15:22:55.631Z,73.25
2023-01-10T15:25:31.682Z,73.38
2023-01-10T15:28:07.842Z,73.31
2023-01-10T15:30:39.249Z,73.61
2023-01-10T15:33:16.459Z,74.46
2023-01-10T15:35:48.802Z,74.03
2023-01-10T15:38:22.454Z,74.34
2023-01-10T15:40:57.524Z,75.16
2023-01-10T15:43:29.215Z,75.15
2023-01-10T15:46:06.084Z,75.04
2023-01-10T15:48:38.185Z,75.96
2023-01-10T15:51:25.983Z,76.08
2023-01-10T15:54:03.516Z,75.62
2023-01-10T15:56:38.812Z,74.86
2023-01-10T15:59:25.422Z,75.04
2023-01-10T16:02:02.394Z,74.59
2023-01-10T16:04:35.108Z,74.02
2023-01-10T16:07:19.366Z,73.87
2023-01-10T16:09:55.696Z,73.72
2023-01-10T16:12:53.744Z,73.84
2023-01-10T16:15:25.081Z,73.56
2023-01-10T16:17:54.824Z,73.78
2023-01-10T16:20:30.913Z,74.17
2023-01-10T16:23:06.876Z,72.59
2023-01-10T16:25:40.845Z,72.45
2023-01-10T16:28:12.125Z,72.91
2023-01-10T16:30:46.694Z,73.35
2023-01-10T16:33:27.968Z,73.46
2023-01-10T16:35:58.571Z,73.77
2023-01-10T16:38:35.118Z,73.74
2023-01-10T16:41:32.371Z,74.58
2023-01-10T16:44:11.004Z,74.11
2023-01-10T16:46:42.399Z,73.75
2023-01-10T16:49:24.780Z,73.81
2023-01-10T16:51:53.966Z,74.54
2023-01-10T16:54:28.485Z,74.08
2023-01-10T16:57:05.476Z,74.78
2023-01-10T16:59:35.614Z,74.42
2023-01-10T17:02:14.397Z,74.17
2023-01-10T17:04:46.209Z,75.01
2023-01-10T17:07:17.615Z,74.34
2023-01-10T17:10:01.051Z,74.90
2023-01-10T17:12:39.891Z,74.05
2023-01-10T17:15:14.155Z,74.68
2023-01-10T17:17:52.926Z,73.54
2023-01-10T17:20:25.692Z,74.04
2023-01-10T17:23:02.493Z,74.67
2023-01-10T17:25:36.958Z,73.34
2023-01-10T17:28:06.582Z,72.50
2023-01-10T17:30:37.653Z,71.76
2023-01-10T17:33:11.003Z,71.72
2023-01-10T17:35:45.649Z,71.59
2023-01-10T17:38:17.466Z,71.21
2023-01-10T17:40:53.628Z,71.81
2023-01-10T17:43:24.614Z,71.33
2023-01-10T17:46:00.721Z,71.32
2023-01-10T17:48:32.777Z,71.72
2023-01-10T17:51:04.076Z,71.21
2023-01-10T17:53:33.570Z,71.59
2023-01-10T17:56:07.752Z,70.95
2023-01-10T17:58:37.201Z,71.15
2023-01-10T18:01:06.357Z,70.88
2023-01-10T18:03:44.105Z,70.38
2023-01-10T18:06:25.249Z,70.00
2023-01-10T18:08:56.684Z,71.11
2023-01-10T18:11:33.138Z,70.40
2023-01-10T18:14:31.240Z,69.77
2023-01-10T18:17:03.624Z,69.49
2023-01-10T18:19:38.195Z,69.36
2023-01-10T18:22:25.676Z,68.95
2023-01-10T18:24:56.121Z,69.24
2023-01-10T18:27:28.939Z,67.65
2023-01-10T18:30:09.158Z,66.83
2023-01-10T18:32:40.761Z,66.63
2023-01-10T18:35:22.335Z,66.07
2023-01-10T18:37:58.209Z,65.33
2023-01-10T18:40:28.431Z,64.99
2023-01-10T18:43:03.569Z,65.17
2023-01-10T18:45:40.869Z,65.25
2023-01-10T18:48:18.022Z,64.07
2023-01-10T18:50:52.963Z,64.12
2023-01-10T18:53:31.016Z,63.70
2023-01-10T18:56:04.931Z,62.87
2023-01-10T18:58:43.229Z,63.30
2023-01-10T19:01:23.689Z,63.17
2023-01-10T19:03:56.120Z,63.29
2023-01-10T19:09:16.530Z,62.92
2023-01-10T19:11:47.532Z,63.46
2023-01-10T19:14:26.567Z,63.69
2023-01-10T19:17:06.414Z,64.06
2023-01-10T19:19:42.843Z,63.88
2023-01-10T19:22:19.040Z,63.18
2023-01-10T19:25:07.964Z,63.49
2023-01-10T19:27:40.002Z,62.92
2023-01-10T19:30:22.674Z,63.50
2023-01-10T19:32:58.188Z,63.23
2023-01-10T19:35:36.191Z,63.43
2023-01-10T19:38:07.020Z,63.72
2023-01-10T19:40:50.641Z,62.67
2023-01-10T19:43:34.377Z,62.90
2023-01-10T19:46:23.411Z,62.03
2023-01-10T19:48:54.307Z,63.14
2023-01-10T19:51:35.823Z,63.74
2023-01-10T19:54:12.471Z,63.02
2023-01-10T19:56:52.887Z,63.10
2023-01-10T19:59:25.076Z,63.38
2023-01-10T20:02:03.939Z,62.28
2023-01-10T20:04:49.220Z,62.37
2023-01-10T20:07:27.822Z,62.38
2023-01-10T20:09:58.242Z,62.80
2023-01-10T20:12:31.870Z,62.30
2023-01-10T20:15:04.572Z,62.83
2023-01-10T20:17:45.803Z,62.21
2023-01-10T20:20:32.211Z,62.84
2023-01-10T20:23:15.524Z,63.24
2023-01-10T20:26:01.935Z,62.77
2023-01-10T20:28:46.565Z,63.82
2023-01-10T20:31:20.799Z,62.80
2023-01-10T20:33:59.832Z,62.80
2023-01-10T20:36:37.540Z,63.57
2023-01-10T20:39:08.022Z,63.39
2023-01-10T20:41:40.282Z,64.02
2023-01-10T20:44:11.812Z,64.69
2023-01-10T20:46:42.381Z,64.61
2023-01-10T20:49:27.782Z,64.23
2023-01-10T20:52:04.890Z,63.87
2023-01-10T20:54:38.886Z,64.10
2023-01-10T20:57:11.143Z,63.54
2023-01-10T20:59:42.063Z,62.65
2023-01-10T21:02:12.312Z,62.03
2023-01-10T21:04:50.541Z,61.89
2023-01-10T21:07:25.221Z,61.33
2023-01-10T21:10:06.231Z,62.12
2023-01-10T21:12:35.840Z,61.66
2023-01-10T21:15:12.833Z,60.68
2023-01-10T21:17:44.625Z,60.90
2023-01-10T21:20:21.638Z,60.88
2023-01-10T21:22:51.645Z,60.63
2023-01-10T21:25:21.309Z,60.69
2023-01-10T21:27:51.034Z,60.94
2023-01-10T21:30:22.475Z,61.02
2023-01-10T21:32:54.565Z,61.66
2023-01-10T21:35:39.154Z,61.42
2023-01-10T21:38:10.739Z,62.80
2023-01-10T21:40:41.924Z,62.16
2023-01-10T21:43:13.120Z,62.42
2023-01-10T21:45:53.793Z,62.12
2023-01-10T21:48:25.201Z,62.62
2023-01-10T21:51:05.691Z,62.30
2023-01-10T21:53:41.496Z,61.90
2023-01-10T21:56:18.934Z,60.62
2023-01-10T21:58:49.954Z,61.56
2023-01-10T22:01:21.305Z,61.07
2023-01-10T22:03:53.128Z,60.44
2023-01-10T22:06:26.651Z,59.57
2023-01-10T22:09:06.888Z,59.79
2023-01-10T22:11:39.300Z,58.86
2023-01-10T22:14:08.986Z,58.46
2023-01-10T22:16:40.691Z,57.66
2023-01-10T22:19:13.349Z,58.15
2023-01-10T22:21:58.009Z,57.27
2023-01-10T22:24:35.006Z,57.30
2023-01-10T22:27:08.073Z,56.49
2023-01-10T22:29:40.238Z,56.08
2023-01-10T22:32:21.890Z,55.58
2023-01-10T22:34:53.560Z,55.48
2023-01-10T22:37:38.947Z,55.53
2023-01-10T22:40:10.985Z,55.86
2023-01-10T22:42:42.949Z,55.91
2023-01-10T22:45:23.760Z,55.39
2023-01-10T22:47:54.184Z,54.53
2023-01-10T22:50:23.835Z,53.99
2023-01-10T22:53:06.016Z,54.28
2023-01-10T22:55:36.897Z,54.34
2023-01-10T22:58:14.020Z,54.97
2023-01-10T23:00:55.235Z,54.26
2023-01-10T23:03:29.357Z,54.64
2023-01-10T23:06:05.350Z,54.80
2023-01-10T23:08:38.805Z,54.44
2023-01-10T23:11:08.709Z,55.15
2023-01-10T23:13:40.400Z,54.37
2023-01-10T23:16:13.524Z,54.91
2023-01-10T23:18:44.300Z,54.33
2023-01-10T23:21:14.790Z,54.47
2023-01-10T23:23:49.446Z,54.04
2023-01-10T23:26:22.050Z,54.17
2023-01-10T23:29:00.281Z,55.06
2023-01-10T23:31:30.036Z,53.68
2023-01-10T23:34:02.390Z,53.56
2023-01-10T23:36:31.389Z,54.70
2023-01-10T23:39:09.947Z,54.49
2023-01-10T23:41:40.450Z,55.07
2023-01-10T23:44:08.518Z,54.69
2023-01-10T23:46:44.904Z,55.33
2023-01-10T23:49:16.996Z,55.09
2023-01-10T23:51:45.339Z,54.40
2023-01-10T23:54:17.530Z,54.98
2023-01-10T23:56:49.192Z,55.33
2023-01-10T23:59:20.130Z,54.95
